createdAt,value
2019-04-20T00:03:34.675Z,65.89
2019-04-20T00:06:05.297Z,66.22
2019-04-20T00:08:37.694Z,66.60
2019-04-20T00:11:29.518Z,64.86
2019-04-20T00:14:07.100Z,65.64
2019-04-20T00:16:37.998Z,65.77
2019-04-20T00:19:09.214Z,67.42
2019-04-20T00:22:17.237Z,68.43
2019-04-20T00:30:51.769Z,70.21
2019-04-20T00:33:31.134Z,70.69
2019-04-20T00:35:55.210Z,72.38
2019-04-20T00:38:27.111Z,72.13
2019-04-20T00:41:17.201Z,71.60
2019-04-20T00:43:53.271Z,71.43
2019-04-20T00:46:35.760Z,72.09
2019-04-20T00:49:21.640Z,72.83
2019-04-20T00:52:12.775Z,70.90
2019-04-20T00:54:26.403Z,70.02
2019-04-20T00:57:07.820Z,71.34
2019-04-20T01:00:04.688Z,69.81
2019-04-20T01:02:37.877Z,72.45
2019-04-20T01:08:08.623Z,72.88
2019-04-20T01:13:52.702Z,74.55
2019-04-20T01:16:45.207Z,73.60
2019-04-20T01:19:15.925Z,74.37
2019-04-20T01:21:57.880Z,73.30
2019-04-20T01:24:31.386Z,75.03
2019-04-20T01:27:05.655Z,75.65
2019-04-20T01:29:45.878Z,75.46
2019-04-20T01:32:26.667Z,76.04
2019-04-20T01:35:03.706Z,75.95
2019-04-20T01:37:40.871Z,74.89
2019-04-20T01:40:46.322Z,76.48
2019-04-20T01:43:22.674Z,77.68
2019-04-20T01:46:07.565Z,77.58
2019-04-20T01:48:38.080Z,77.87
2019-04-20T01:51:19.728Z,79.48
2019-04-20T01:54:24.934Z,79.55
2019-04-20T01:59:56.338Z,79.61
2019-04-20T02:02:57.041Z,77.51
2019-04-20T02:05:53.643Z,80.47
2019-04-20T02:08:21.425Z,82.90
2019-04-20T02:11:00.946Z,82.61
2019-04-20T02:13:43.578Z,81.36
2019-04-20T02:16:19.147Z,82.14
2019-04-20T02:19:06.587Z,79.59
2019-04-20T02:21:40.867Z,79.33
2019-04-20T02:24:04.061Z,79.70
2019-04-20T02:26:36.739Z,79.22
2019-04-20T02:29:33.682Z,80.39
2019-04-20T02:32:23.362Z,80.70
2019-04-20T02:41:29.852Z,83.58
2019-04-20T02:44:30.607Z,85.79
2019-04-20T02:52:20.937Z,84.46
2019-04-20T02:55:06.302Z,84.28
2019-04-20T03:00:12.480Z,86.21
2019-04-20T03:02:19.433Z,85.47
2019-04-20T03:04:42.259Z,86.53
2019-04-20T03:07:20.619Z,85.22
2019-04-20T03:09:58.668Z,86.73
2019-04-20T03:12:33.154Z,86.58
2019-04-20T03:14:52.142Z,86.68
2019-04-20T03:17:35.367Z,86.16
2019-04-20T03:19:52.544Z,88.03
2019-04-20T03:22:39.560Z,88.06
2019-04-20T03:25:09.628Z,87.64
2019-04-20T03:27:37.191Z,87.40
2019-04-20T03:30:40.264Z,86.87
2019-04-20T03:33:11.943Z,88.88
2019-04-20T03:35:20.025Z,88.58
2019-04-20T03:37:48.569Z,89.98
2019-04-20T03:40:12.889Z,90.53
2019-04-20T03:42:28.890Z,88.95
2019-04-20T03:45:04.167Z,88.53
2019-04-20T03:47:42.609Z,89.91
2019-04-20T03:50:33.646Z,90.56
2019-04-20T03:53:03.703Z,89.74
2019-04-20T03:55:44.479Z,89.72
2019-04-20T03:58:24.329Z,89.45
2019-04-20T04:01:13.327Z,89.50
2019-04-20T04:03:53.411Z,88.29
2019-04-20T04:06:16.346Z,90.49
2019-04-20T04:08:39.515Z,88.62
2019-04-20T04:11:22.078Z,88.83
2019-04-20T04:13:37.768Z,89.67
2019-04-20T04:16:11.447Z,89.96
2019-04-20T04:18:42.747Z,90.66
2019-04-20T04:21:16.149Z,90.80
2019-04-20T04:23:57.526Z,91.52
2019-04-20T04:26:32.205Z,92.56
2019-04-20T04:29:02.759Z,93.16
2019-04-20T04:31:33.206Z,93.02
2019-04-20T04:34:04.847Z,92.98
2019-04-20T04:36:30.150Z,93.95
2019-04-20T04:39:34.008Z,92.53
2019-04-20T04:41:36.678Z,93.77
2019-04-20T04:44:06.148Z,93.37
2019-04-20T04:46:20.686Z,94.74
2019-04-20T04:48:52.870Z,94.69
2019-04-20T04:51:27.407Z,96.73
2019-04-20T04:53:59.779Z,96.64
2019-04-20T04:56:25.597Z,96.30
2019-04-20T04:58:54.147Z,96.19
2019-04-20T05:01:27.419Z,97.17
2019-04-20T05:04:21.596Z,96.58
2019-04-20T05:06:40.644Z,95.59
2019-04-20T05:09:00.751Z,94.41
2019-04-20T05:11:29.788Z,94.81
2019-04-20T05:14:04.098Z,92.18
2019-04-20T05:17:06.031Z,91.58
2019-04-20T05:19:23.490Z,90.20
2019-04-20T05:24:29.174Z,92.84
2019-04-20T05:27:13.653Z,94.25
2019-04-20T05:29:27.393Z,94.01
2019-04-20T05:32:00.855Z,92.11
2019-04-20T05:34:47.989Z,93.05
2019-04-20T05:37:23.644Z,89.73
2019-04-20T05:39:56.237Z,86.53
2019-04-20T05:42:24.202Z,79.73
2019-04-20T05:44:49.950Z,79.89
2019-04-20T05:47:21.704Z,75.44
2019-04-20T05:49:50.026Z,75.36
2019-04-20T05:52:42.064Z,75.38
2019-04-20T05:55:00.724Z,75.77
2019-04-20T05:57:32.946Z,75.30
2019-04-20T06:00:05.516Z,75.01
2019-04-20T06:02:27.736Z,73.81
2019-04-20T06:05:04.346Z,74.19
2019-04-20T06:07:31.397Z,74.29
2019-04-20T06:10:06.108Z,73.81
2019-04-20T06:12:36.936Z,73.00
2019-04-20T06:15:06.861Z,70.07
2019-04-20T06:17:52.871Z,69.80
2019-04-20T06:20:31.313Z,68.50
2019-04-20T06:23:28.519Z,68.91
2019-04-20T06:26:11.049Z,68.09
2019-04-20T06:28:19.745Z,70.81
2019-04-20T06:30:48.803Z,70.35
2019-04-20T06:36:43.011Z,66.09
2019-04-20T06:39:10.984Z,64.78
2019-04-20T06:41:54.207Z,64.47
2019-04-20T06:44:08.209Z,64.90
2019-04-20T06:46:47.201Z,66.10
2019-04-20T06:49:19.602Z,67.45
2019-04-20T06:51:53.282Z,65.98
2019-04-20T06:54:15.623Z,63.81
2019-04-20T06:57:00.201Z,64.53
2019-04-20T06:59:32.214Z,65.40
2019-04-20T07:04:43.289Z,60.36
2019-04-20T07:07:10.148Z,60.36
2019-04-20T07:12:02.896Z,59.02
2019-04-20T07:14:31.535Z,56.00
2019-04-20T07:17:20.527Z,55.12
2019-04-20T07:19:46.578Z,54.46
2019-04-20T07:22:31.742Z,53.85
2019-04-20T07:27:27.830Z,54.11
2019-04-20T07:30:10.706Z,52.70
2019-04-20T07:32:17.826Z,52.70
2019-04-20T07:34:55.637Z,54.87
2019-04-20T07:39:58.885Z,53.18
2019-04-20T07:42:34.633Z,53.51
2019-04-20T07:45:12.286Z,53.36
2019-04-20T07:47:40.550Z,51.57
2019-04-20T07:50:03.729Z,52.86
2019-04-20T07:52:14.405Z,53.77
2019-04-20T07:55:26.288Z,51.56
2019-04-20T07:57:35.322Z,51.20
2019-04-20T08:00:06.306Z,51.95
2019-04-20T08:02:57.355Z,51.37
2019-04-20T08:05:19.274Z,50.02
2019-04-20T08:07:51.027Z,50.02
2019-04-20T08:10:28.709Z,51.71
2019-04-20T08:15:46.177Z,50.06
2019-04-20T08:18:19.449Z,50.12
2019-04-20T08:20:36.857Z,48.18
2019-04-20T08:22:58.804Z,50.81
2019-04-20T08:25:30.684Z,50.95
2019-04-20T08:28:06.373Z,48.39
2019-04-20T08:31:00.837Z,48.66
2019-04-20T08:33:34.966Z,49.87
2019-04-20T08:36:14.796Z,49.32
2019-04-20T08:41:29.687Z,50.68
2019-04-20T08:44:35.529Z,49.76
2019-04-20T08:46:44.605Z,50.46
2019-04-20T08:49:11.341Z,47.96
2019-04-20T08:51:45.093Z,49.56
2019-04-20T08:54:08.642Z,49.19
2019-04-20T08:56:31.796Z,47.87
2019-04-20T08:58:52.884Z,49.14
2019-04-20T09:01:27.359Z,47.59
2019-04-20T09:04:02.068Z,47.73
2019-04-20T09:06:41.745Z,47.48
2019-04-20T09:09:29.253Z,49.02
2019-04-20T09:11:50.513Z,50.62
2019-04-20T09:14:02.530Z,48.96
2019-04-20T09:16:38.890Z,48.83
2019-04-20T09:19:07.029Z,48.29
2019-04-20T09:21:47.184Z,47.08
2019-04-20T09:24:29.901Z,46.76
2019-04-20T09:26:54.285Z,47.37
2019-04-20T09:29:23.828Z,47.60
2019-04-20T09:32:00.772Z,47.95
2019-04-20T09:34:40.708Z,46.02
2019-04-20T09:37:22.044Z,47.81
2019-04-20T09:39:44.972Z,45.63
2019-04-20T09:44:42.665Z,45.77
2019-04-20T09:47:27.435Z,46.16
2019-04-20T09:50:31.966Z,45.08
2019-04-20T09:53:10.193Z,43.53
2019-04-20T09:55:42.910Z,43.24
2019-04-20T09:58:18.004Z,44.09
2019-04-20T10:01:03.233Z,45.12
2019-04-20T10:03:22.874Z,44.70
2019-04-20T10:06:11.702Z,43.26
2019-04-20T10:08:51.510Z,42.41
2019-04-20T10:11:23.645Z,41.27
2019-04-20T10:13:59.059Z,40.10
2019-04-20T10:16:29.458Z,40.03
2019-04-20T10:19:25.096Z,38.72
2019-04-20T10:21:56.884Z,38.67
2019-04-20T10:24:36.914Z,38.29
2019-04-20T10:27:16.835Z,38.05
2019-04-20T10:29:46.480Z,36.51
2019-04-20T10:32:17.565Z,37.71
2019-04-20T10:38:46.463Z,37.03
2019-04-20T10:41:44.535Z,36.78
2019-04-20T10:44:07.055Z,37.00
2019-04-20T10:46:56.577Z,37.80
2019-04-20T10:49:33.246Z,37.14
2019-04-20T10:52:09.721Z,36.85
2019-04-20T10:54:45.457Z,35.82
2019-04-20T10:57:15.534Z,38.18
2019-04-20T11:00:46.071Z,37.53
2019-04-20T11:03:22.715Z,34.92
2019-04-20T11:05:58.513Z,33.74
2019-04-20T11:08:46.987Z,32.64
2019-04-20T11:11:23.820Z,35.91
2019-04-20T11:14:15.454Z,34.15
2019-04-20T11:16:44.388Z,33.83
2019-04-20T11:19:19.587Z,33.12
2019-04-20T11:21:50.181Z,33.45
2019-04-20T11:24:39.060Z,34.15
2019-04-20T11:27:20.400Z,34.74
2019-04-20T11:29:56.166Z,33.86
2019-04-20T11:32:26.254Z,32.75
2019-04-20T11:38:58.760Z,31.11
2019-04-20T11:41:38.986Z,30.67
2019-04-20T11:44:20.038Z,29.99
2019-04-20T11:46:56.676Z,31.33
2019-04-20T11:49:31.624Z,31.45
2019-04-20T11:52:01.516Z,32.24
2019-04-20T11:54:37.355Z,31.97
2019-04-20T11:57:07.102Z,27.74
2019-04-20T11:59:57.146Z,32.18
2019-04-20T12:02:58.638Z,30.70
2019-04-20T12:05:40.796Z,29.05
2019-04-20T12:08:09.424Z,31.34
2019-04-20T12:10:39.161Z,31.15
2019-04-20T12:13:16.423Z,31.42
2019-04-20T12:15:52.075Z,32.58
2019-04-20T12:18:27.638Z,33.35
2019-04-20T12:21:03.416Z,32.28
2019-04-20T12:23:34.030Z,31.90
2019-04-20T12:26:13.338Z,31.47
2019-04-20T12:28:43.378Z,31.73
2019-04-20T12:31:55.423Z,30.73
2019-04-20T12:34:30.630Z,30.15
2019-04-20T12:37:07.154Z,32.06
2019-04-20T12:39:42.878Z,29.60
2019-04-20T12:42:19.317Z,28.70
2019-04-20T12:44:49.995Z,30.92
2019-04-20T12:47:39.627Z,30.72
2019-04-20T12:53:40.457Z,30.18
2019-04-20T12:56:16.818Z,29.01
2019-04-20T12:58:56.238Z,31.15
2019-04-20T13:01:26.044Z,30.08
2019-04-20T13:03:55.477Z,30.38
2019-04-20T13:06:25.798Z,29.69
2019-04-20T13:09:15.148Z,30.37
2019-04-20T13:17:42.121Z,30.92
2019-04-20T13:20:18.288Z,28.00
2019-04-20T13:22:55.004Z,27.16
2019-04-20T13:25:30.858Z,27.29
2019-04-20T13:28:01.061Z,27.76
2019-04-20T13:30:50.443Z,28.17
2019-04-20T13:33:20.217Z,28.74
2019-04-20T13:35:50.184Z,27.08
2019-04-20T13:38:25.966Z,28.62
2019-04-20T13:41:15.753Z,29.57
2019-04-20T13:44:06.427Z,27.44
2019-04-20T13:46:45.314Z,28.40
2019-04-20T13:49:15.242Z,26.81
2019-04-20T13:52:04.971Z,27.74
2019-04-20T13:54:34.625Z,27.90
2019-04-20T14:00:59.702Z,26.15
2019-04-20T14:03:40.770Z,26.45
2019-04-20T14:06:20.907Z,26.72
2019-04-20T14:08:51.473Z,27.74
2019-04-20T14:11:41.410Z,26.91
2019-04-20T14:14:17.184Z,25.78
2019-04-20T14:16:53.265Z,26.01
2019-04-20T14:19:23.174Z,26.69
2019-04-20T14:22:13.233Z,26.66
2019-04-20T14:24:49.032Z,27.29
2019-04-20T14:27:19.046Z,25.61
2019-04-20T14:29:59.215Z,26.56
2019-04-20T14:32:39.216Z,26.03
2019-04-20T14:35:09.190Z,27.42
2019-04-20T14:37:59.669Z,26.22
2019-04-20T14:43:36.438Z,26.87
2019-04-20T14:46:12.681Z,25.51
2019-04-20T14:48:49.020Z,25.68
2019-04-20T14:51:25.661Z,25.73
2019-04-20T14:54:05.520Z,25.51
2019-04-20T14:56:41.326Z,24.92
2019-04-20T15:02:17.529Z,25.08
2019-04-20T15:07:42.709Z,24.24
2019-04-20T15:10:22.757Z,23.84
2019-04-20T15:12:58.717Z,22.88
2019-04-20T15:15:42.196Z,24.12
2019-04-20T15:24:07.586Z,24.07
2019-04-20T15:26:38.370Z,23.44
2019-04-20T15:29:28.378Z,24.04
2019-04-20T15:32:08.152Z,23.33
2019-04-20T15:34:44.663Z,24.42
2019-04-20T15:37:23.613Z,23.46
2019-04-20T15:39:52.921Z,22.39
2019-04-20T15:42:23.346Z,23.07
2019-04-20T15:51:06.164Z,22.82
2019-04-20T15:53:35.572Z,22.45
2019-04-20T15:56:08.018Z,22.34
2019-04-20T15:58:41.579Z,22.72
2019-04-20T16:01:12.173Z,22.29
2019-04-20T16:04:12.726Z,22.70
2019-04-20T16:09:35.903Z,22.94
2019-04-20T16:12:26.835Z,23.57
2019-04-20T16:15:03.815Z,23.78
2019-04-20T16:17:43.565Z,24.30
2019-04-20T16:20:20.219Z,23.45
2019-04-20T16:22:52.271Z,23.30
2019-04-20T16:25:47.885Z,24.47
2019-04-20T16:28:17.411Z,22.79
2019-04-20T16:31:10.072Z,22.95
2019-04-20T16:33:44.284Z,24.38
2019-04-20T16:36:23.948Z,22.83
2019-04-20T16:38:53.632Z,22.83
2019-04-20T16:41:44.472Z,22.16
2019-04-20T16:44:25.039Z,22.74
2019-04-20T16:47:00.524Z,22.12
2019-04-20T16:49:41.161Z,21.87
2019-04-20T16:52:16.847Z,21.99
2019-04-20T16:54:53.563Z,23.87
2019-04-20T16:57:29.831Z,24.13
2019-04-20T17:03:39.044Z,24.04
2019-04-20T17:09:12.196Z,24.66
2019-04-20T17:11:48.258Z,25.04
2019-04-20T17:14:19.074Z,25.43
2019-04-20T17:17:07.875Z,24.93
2019-04-20T17:19:37.654Z,25.41
2019-04-20T17:22:27.657Z,25.66
2019-04-20T17:28:28.986Z,26.22
2019-04-20T17:31:31.892Z,26.26
2019-04-20T17:34:17.095Z,26.61
2019-04-20T17:36:52.632Z,26.92
2019-04-20T17:39:41.204Z,27.07
2019-04-20T17:42:23.575Z,26.91
2019-04-20T17:44:58.717Z,26.55
2019-04-20T17:47:44.168Z,27.00
2019-04-20T17:50:20.140Z,27.33
2019-04-20T17:52:54.807Z,27.09
2019-04-20T18:01:41.211Z,27.64
2019-04-20T18:07:03.739Z,28.56
2019-04-20T18:09:56.530Z,29.21
2019-04-20T18:12:25.201Z,28.96
2019-04-20T18:15:08.169Z,28.52
2019-04-20T18:18:07.193Z,28.50
2019-04-20T18:23:28.250Z,29.44
2019-04-20T18:26:23.720Z,28.49
2019-04-20T18:29:00.383Z,29.92
2019-04-20T18:31:49.334Z,29.58
2019-04-20T18:40:36.470Z,29.57
2019-04-20T18:48:55.206Z,30.46
2019-04-20T18:51:15.478Z,31.35
2019-04-20T18:53:53.486Z,31.40
2019-04-20T18:56:33.075Z,32.03
2019-04-20T18:59:30.329Z,32.47
2019-04-20T19:02:01.180Z,32.85
2019-04-20T19:04:37.662Z,33.57
2019-04-20T19:07:14.154Z,34.31
2019-04-20T19:09:55.281Z,35.02
2019-04-20T19:15:56.451Z,35.02
2019-04-20T19:18:50.458Z,35.76
2019-04-20T19:21:15.202Z,35.84
2019-04-20T19:24:01.677Z,36.04
2019-04-20T19:26:28.566Z,36.32
2019-04-20T19:32:32.445Z,36.30
2019-04-20T19:38:20.335Z,36.84
2019-04-20T19:41:20.423Z,38.04
2019-04-20T19:43:54.948Z,38.18
2019-04-20T19:49:04.097Z,40.12
2019-04-20T19:52:02.749Z,39.36
2019-04-20T19:54:38.907Z,39.81
2019-04-20T19:57:05.130Z,38.61
2019-04-20T19:59:35.621Z,40.77
2019-04-20T20:02:05.553Z,41.59
2019-04-20T20:04:48.439Z,41.51
2019-04-20T20:07:26.313Z,41.25
2019-04-20T20:09:58.426Z,42.33
2019-04-20T20:12:31.437Z,42.19
2019-04-20T20:18:27.121Z,43.56
2019-04-20T20:21:12.307Z,44.73
2019-04-20T20:23:38.734Z,44.35
2019-04-20T20:26:13.008Z,44.95
2019-04-20T20:29:08.196Z,45.10
2019-04-20T20:31:54.070Z,45.84
2019-04-20T20:34:24.549Z,45.98
2019-04-20T20:36:54.850Z,45.71
2019-04-20T20:39:35.108Z,46.74
2019-04-20T20:42:21.885Z,46.75
2019-04-20T20:44:54.068Z,47.17
2019-04-20T20:47:49.059Z,48.99
2019-04-20T20:50:41.076Z,47.25
2019-04-20T20:53:12.560Z,47.87
2019-04-20T20:55:44.128Z,49.00
2019-04-20T20:58:19.189Z,49.58
2019-04-20T21:00:57.520Z,48.70
2019-04-20T21:03:34.352Z,48.83
2019-04-20T21:06:44.605Z,49.99
2019-04-20T21:09:21.010Z,48.02
2019-04-20T21:12:00.699Z,48.59
2019-04-20T21:14:35.339Z,45.66
2019-04-20T21:17:16.006Z,46.77
2019-04-20T21:20:07.398Z,45.63
2019-04-20T21:22:44.591Z,45.87
2019-04-20T21:27:44.446Z,47.29
2019-04-20T21:30:39.988Z,47.40
2019-04-20T21:33:11.595Z,49.61
2019-04-20T21:35:52.196Z,49.93
2019-04-20T21:38:31.388Z,50.62
2019-04-20T21:41:08.199Z,50.01
2019-04-20T21:43:42.904Z,50.71
2019-04-20T21:46:16.572Z,51.25
2019-04-20T21:49:08.198Z,51.88
2019-04-20T21:51:37.304Z,51.53
2019-04-20T21:54:06.679Z,53.24
2019-04-20T21:56:52.505Z,52.82
2019-04-20T21:59:44.407Z,54.47
2019-04-20T22:02:19.481Z,54.96
2019-04-20T22:07:50.390Z,56.29
2019-04-20T22:10:40.807Z,54.85
2019-04-20T22:13:38.840Z,55.86
2019-04-20T22:16:13.133Z,55.86
2019-04-20T22:19:22.390Z,56.19
2019-04-20T22:21:58.431Z,56.19
2019-04-20T22:24:40.253Z,57.38
2019-04-20T22:27:15.798Z,56.85
2019-04-20T22:29:52.212Z,59.01
2019-04-20T22:32:36.711Z,59.26
2019-04-20T22:35:18.843Z,58.95
2019-04-20T22:38:08.931Z,58.89
2019-04-20T22:40:56.614Z,59.48
2019-04-20T22:43:40.254Z,59.48
2019-04-20T22:46:24.773Z,57.66
2019-04-20T22:49:15.502Z,57.66
2019-04-20T22:51:44.794Z,58.11
2019-04-20T22:54:23.329Z,57.40
2019-04-20T22:57:02.294Z,61.35
2019-04-20T22:59:47.068Z,60.12
2019-04-20T23:02:22.961Z,59.65
2019-04-20T23:04:53.155Z,59.65
2019-04-20T23:07:48.711Z,60.14
2019-04-20T23:10:40.885Z,61.98
2019-04-20T23:13:22.085Z,60.84
2019-04-20T23:15:55.411Z,60.84
2019-04-20T23:18:31.929Z,61.52
2019-04-20T23:21:10.847Z,62.68
2019-04-20T23:24:09.287Z,62.78
2019-04-20T23:26:45.937Z,62.78
2019-04-20T23:29:22.694Z,63.55
2019-04-20T23:32:01.380Z,63.94
2019-04-20T23:34:34.601Z,63.36
2019-04-20T23:37:16.267Z,63.31
2019-04-20T23:39:49.191Z,64.22
2019-04-20T23:42:44.498Z,65.19
2019-04-20T23:45:43.875Z,63.87
2019-04-20T23:48:37.467Z,66.43
2019-04-20T23:51:36.243Z,63.65
2019-04-20T23:53:59.708Z,61.28
2019-04-20T23:56:30.367Z,63.50
2019-04-20T23:59:06.471Z,64.32
